Time;durP1;ratioP1;P1;durP2;ratioP2;P2;SDS_P1;SDS_P2;PMS_P1;PMS_P2;Temp;Humidity;BMP_temperature;BMP_pressure;BME280_temperature;BME280_humidity;BME280_pressure;Samples;Min_cycle;Max_cycle;Signal;HPM_P1;HPM_P2
2022/01/25 00:25:03;;;;;;;12.35;5.65;;;2.20;69.80;;;;;;2364282;53;20963;-66
2022/01/25 00:27:48;;;;;;;12.48;6.75;;;2.10;69.70;;;;;;2379542;53;20976;-69
2022/01/25 00:30:27;;;;;;;12.75;6.03;;;2.10;69.70;;;;;;2363114;54;21054;-66
2022/01/25 00:32:53;;;;;;;15.80;7.85;;;2.10;69.70;;;;;;2346375;54;21874;-66
2022/01/25 00:35:19;;;;;;;16.85;8.15;;;2.10;69.70;;;;;;2618113;52;21462;-66
2022/01/25 00:37:46;;;;;;;18.25;9.10;;;2.10;69.70;;;;;;2366503;54;20919;-68
2022/01/25 00:40:12;;;;;;;14.60;8.27;;;2.00;69.60;;;;;;2365965;53;20961;-68
2022/01/25 00:42:39;;;;;;;17.17;8.15;;;2.00;69.60;;;;;;2342531;53;20954;-67
2022/01/25 00:45:08;;;;;;;16.65;8.77;;;2.00;69.70;;;;;;2360477;54;20947;-66
2022/01/25 00:47:34;;;;;;;15.95;7.55;;;2.00;69.70;;;;;;2366462;53;20941;-69
2022/01/25 00:50:00;;;;;;;14.55;7.40;;;2.00;69.80;;;;;;2372164;53;21020;-68
2022/01/25 00:56:33;;;;;;;17.02;6.50;;;1.90;69.70;;;;;;2448624;52;20990;-68
2022/01/25 00:59:03;;;;;;;14.60;7.12;;;1.90;69.80;;;;;;2372363;53;20963;-67
2022/01/25 01:01:29;;;;;;;13.52;6.80;;;1.90;69.90;;;;;;2364800;54;21434;-69
2022/01/25 01:03:55;;;;;;;14.13;6.70;;;1.90;69.90;;;;;;2365126;54;20950;-66
2022/01/25 01:06:22;;;;;;;15.35;7.28;;;1.90;69.90;;;;;;2363338;54;20998;-67
2022/01/25 01:08:48;;;;;;;15.15;7.28;;;1.90;69.90;;;;;;2365626;54;21045;-66
2022/01/25 01:11:20;;;;;;;13.90;6.95;;;1.90;69.90;;;;;;2359707;53;20919;-67
2022/01/25 01:14:11;;;;;;;12.37;6.00;;;1.80;69.80;;;;;;2366599;53;20961;-67
2022/01/25 01:34:21;;;;;;;13.77;6.60;;;1.70;69.70;;;;;;2475295;53;21514;-66
2022/01/25 01:40:00;;;;;;;17.37;6.97;;;1.70;69.80;;;;;;2368539;54;20934;-68
2022/01/25 01:42:53;;;;;;;14.45;6.72;;;1.70;69.90;;;;;;2322306;53;20958;-69
2022/01/25 01:46:18;;;;;;;14.85;6.93;;;1.70;70.70;;;;;;2433880;52;20941;-69
2022/01/25 01:49:02;;;;;;;12.57;5.80;;;1.60;70.00;;;;;;2334300;53;21435;-68
2022/01/25 01:51:35;;;;;;;16.17;7.10;;;1.60;69.90;;;;;;2329612;53;20963;-67
2022/01/25 01:54:11;;;;;;;17.60;7.70;;;1.60;70.00;;;;;;2341704;54;20966;-68
2022/01/25 01:56:37;;;;;;;18.35;8.05;;;1.60;70.00;;;;;;2356699;54;20962;-68
2022/01/25 01:59:05;;;;;;;14.48;7.05;;;1.60;70.00;;;;;;2357115;53;21033;-68
2022/01/25 02:01:31;;;;;;;14.87;7.10;;;1.60;70.00;;;;;;2356989;53;21474;-66
2022/01/25 02:03:59;;;;;;;17.33;7.50;;;1.60;70.00;;;;;;2352813;53;20924;-68
2022/01/25 02:06:25;;;;;;;16.73;8.70;;;1.60;69.90;;;;;;2353193;53;20955;-68
2022/01/25 02:08:52;;;;;;;18.92;8.43;;;1.60;69.90;;;;;;2581997;52;20989;-66
2022/01/25 02:11:18;;;;;;;19.45;9.07;;;1.60;69.90;;;;;;2356929;53;20937;-68
2022/01/25 02:13:45;;;;;;;17.90;8.85;;;1.60;69.90;;;;;;2357174;53;20947;-68
2022/01/25 02:16:29;;;;;;;17.90;9.60;;;1.60;70.00;;;;;;2357160;53;20947;-68
2022/01/25 02:24:25;;;;;;;18.33;8.55;;;1.60;70.50;;;;;;2356378;54;21051;-69
2022/01/25 02:26:55;;;;;;;17.75;8.48;;;1.60;70.50;;;;;;2351682;54;20937;-68
2022/01/25 02:29:21;;;;;;;18.42;9.15;;;1.60;70.50;;;;;;2344009;54;20959;-68
2022/01/25 02:31:47;;;;;;;15.75;8.65;;;1.60;70.40;;;;;;2482398;53;21785;-68
2022/01/25 02:34:14;;;;;;;15.90;7.65;;;1.60;70.30;;;;;;2356719;54;20933;-67
2022/01/25 02:36:40;;;;;;;15.40;7.47;;;1.60;70.20;;;;;;2362182;54;20926;-68
2022/01/25 02:39:06;;;;;;;18.40;9.00;;;1.60;70.20;;;;;;2362551;54;21632;-69
2022/01/25 02:41:33;;;;;;;18.52;8.73;;;1.60;70.20;;;;;;2362496;54;20982;-68
2022/01/25 02:44:00;;;;;;;19.33;9.30;;;1.60;70.10;;;;;;2367815;53;21475;-68
2022/01/25 02:49:40;;;;;;;18.58;8.85;;;1.60;70.00;;;;;;2355683;53;21511;-69
2022/01/25 02:52:08;;;;;;;16.02;7.65;;;1.50;69.80;;;;;;2468758;53;20975;-68
2022/01/25 02:54:38;;;;;;;16.83;8.57;;;1.50;69.80;;;;;;2362748;53;21662;-67
2022/01/25 02:57:04;;;;;;;17.52;8.68;;;1.50;69.80;;;;;;2336175;53;20964;-66
2022/01/25 02:59:31;;;;;;;19.05;8.68;;;1.50;69.70;;;;;;2360115;53;20942;-66
2022/01/25 03:01:57;;;;;;;18.25;9.02;;;1.50;69.60;;;;;;2359588;53;20969;-66
2022/01/25 03:04:23;;;;;;;17.67;8.88;;;1.50;69.60;;;;;;2362582;53;20989;-66
2022/01/25 03:06:50;;;;;;;17.87;8.60;;;1.40;69.60;;;;;;2362078;53;20914;-67
2022/01/25 03:09:17;;;;;;;15.50;7.28;;;1.40;69.60;;;;;;2362426;53;20924;-67
2022/01/25 03:11:46;;;;;;;18.65;9.20;;;1.40;69.60;;;;;;2361962;53;21488;-66
2022/01/25 03:14:13;;;;;;;20.40;8.68;;;1.40;69.60;;;;;;2362694;53;20947;-67
2022/01/25 03:16:52;;;;;;;17.83;8.57;;;1.40;69.70;;;;;;2362025;53;20916;-66
2022/01/25 03:22:59;;;;;;;15.90;7.80;;;1.40;69.60;;;;;;2358140;54;20954;-70
2022/01/25 03:25:26;;;;;;;16.50;7.72;;;1.30;69.40;;;;;;2360849;54;20943;-67
2022/01/25 03:27:52;;;;;;;18.27;8.25;;;1.30;69.40;;;;;;2362702;54;21018;-66
2022/01/25 03:30:21;;;;;;;15.65;7.18;;;1.30;69.40;;;;;;2373331;53;20956;-67
2022/01/25 03:32:47;;;;;;;19.85;8.52;;;1.30;69.40;;;;;;2386112;54;20987;-66
2022/01/25 03:35:14;;;;;;;18.35;8.77;;;1.30;69.40;;;;;;2385772;54;20960;-67
2022/01/25 03:37:40;;;;;;;17.42;8.93;;;1.20;69.30;;;;;;2387628;52;20986;-68
2022/01/25 03:40:07;;;;;;;16.55;8.05;;;1.30;69.40;;;;;;2360097;53;20959;-66
2022/01/25 03:42:37;;;;;;;15.80;7.55;;;1.20;69.40;;;;;;2385192;54;20940;-67
2022/01/25 03:45:04;;;;;;;18.50;8.82;;;1.20;69.30;;;;;;2386283;54;20943;-68
2022/01/25 03:47:43;;;;;;;15.40;7.82;;;1.20;69.30;;;;;;2497422;52;20924;-66
2022/01/25 03:50:09;;;;;;;16.02;7.47;;;1.20;69.30;;;;;;2385968;54;21440;-67
2022/01/25 03:52:37;;;;;;;16.67;8.13;;;1.20;69.30;;;;;;2385778;54;20927;-67
2022/01/25 03:55:04;;;;;;;19.15;8.73;;;1.20;69.40;;;;;;2385856;54;20936;-68
2022/01/25 03:57:31;;;;;;;18.02;8.45;;;1.20;69.50;;;;;;2386011;54;20912;-68
2022/01/25 03:59:59;;;;;;;14.68;7.57;;;1.10;69.40;;;;;;2385904;54;20927;-67
2022/01/25 04:02:28;;;;;;;15.00;7.75;;;1.10;69.30;;;;;;2385742;54;20931;-67
2022/01/25 04:04:57;;;;;;;16.55;7.97;;;1.10;69.30;;;;;;2641795;52;20928;-68
2022/01/25 04:07:31;;;;;;;17.52;8.25;;;1.10;69.30;;;;;;2385354;54;20943;-67
2022/01/25 04:09:58;;;;;;;18.77;8.50;;;1.10;69.30;;;;;;2386318;54;21066;-68
2022/01/25 04:12:25;;;;;;;17.23;8.13;;;1.10;69.30;;;;;;2362065;53;20936;-66
2022/01/25 04:14:51;;;;;;;16.25;7.75;;;1.00;69.20;;;;;;2385970;54;20944;-68
2022/01/25 04:17:20;;;;;;;16.27;7.97;;;1.00;69.20;;;;;;2381725;54;20977;-68
2022/01/25 04:20:11;;;;;;;16.35;7.80;;;1.10;69.30;;;;;;2367307;54;20963;-66
2022/01/25 04:25:22;;;;;;;18.05;8.40;;;1.00;69.40;;;;;;2588067;52;20945;-68
2022/01/25 04:27:48;;;;;;;18.98;8.73;;;1.00;69.50;;;;;;2381624;54;20940;-67
2022/01/25 04:30:15;;;;;;;19.42;9.48;;;1.00;69.50;;;;;;2386103;54;20975;-67
2022/01/25 04:32:49;;;;;;;21.33;8.40;;;1.00;69.40;;;;;;2641715;52;20964;-67
2022/01/25 04:50:51;;;;;;;17.95;8.52;;;0.90;69.20;;;;;;2335776;54;21838;-66
2022/01/25 04:53:43;;;;;;;17.83;8.15;;;0.90;69.20;;;;;;2364097;53;20976;-67
2022/01/25 04:56:27;;;;;;;19.52;8.77;;;0.80;69.10;;;;;;2369782;53;20995;-66
2022/01/25 04:59:13;;;;;;;19.15;8.63;;;0.80;69.20;;;;;;2349165;53;21079;-67
2022/01/25 05:01:41;;;;;;;18.27;8.10;;;0.80;69.20;;;;;;2351702;54;21781;-66
2022/01/25 05:04:20;;;;;;;16.02;7.82;;;0.80;69.20;;;;;;2338529;53;20927;-67
2022/01/25 05:06:51;;;;;;;16.60;8.05;;;0.80;69.30;;;;;;2361075;54;20949;-66
2022/01/25 05:09:19;;;;;;;18.00;8.75;;;0.80;69.50;;;;;;2361966;54;20934;-66
2022/01/25 05:11:48;;;;;;;17.62;8.05;;;0.80;69.50;;;;;;2362205;54;21780;-67
2022/01/25 05:14:20;;;;;;;17.42;8.15;;;0.80;69.50;;;;;;2354006;53;21040;-67
2022/01/25 05:16:57;;;;;;;17.47;7.90;;;0.80;69.50;;;;;;2359882;54;20962;-66
2022/01/25 05:22:25;;;;;;;17.30;8.10;;;0.80;69.40;;;;;;2362128;54;20969;-69
2022/01/25 05:24:54;;;;;;;17.40;8.13;;;0.80;69.40;;;;;;2417896;52;20924;-67
2022/01/25 05:27:23;;;;;;;17.65;7.72;;;0.70;69.30;;;;;;2385605;54;20947;-69
2022/01/25 05:29:49;;;;;;;16.87;7.97;;;0.70;69.30;;;;;;2385656;54;20979;-67
2022/01/25 05:32:18;;;;;;;13.73;6.80;;;0.70;69.20;;;;;;2641685;52;20936;-69
2022/01/25 05:34:45;;;;;;;17.73;9.00;;;0.70;69.20;;;;;;2386037;54;20919;-67
2022/01/25 05:37:11;;;;;;;15.80;7.82;;;0.70;69.20;;;;;;2386030;54;20916;-67
2022/01/25 05:39:37;;;;;;;18.65;8.75;;;0.70;69.20;;;;;;2385530;54;20908;-66
2022/01/25 05:42:30;;;;;;;18.23;8.38;;;0.70;69.20;;;;;;2385871;54;20991;-69
2022/01/25 05:45:12;;;;;;;18.98;8.18;;;0.70;69.20;;;;;;2385352;54;20935;-68
2022/01/25 05:47:47;;;;;;;;;;;0.70;69.10;;;;;;2555075;52;20971;-68
2022/01/25 05:50:14;;;;;;;15.18;7.43;;;0.70;68.70;;;;;;2404007;53;20413;-68
2022/01/25 05:52:40;;;;;;;18.23;7.68;;;0.60;69.00;;;;;;2451001;52;21400;-67
2022/01/25 05:55:08;;;;;;;18.15;8.82;;;0.60;69.00;;;;;;2395173;53;21774;-68
2022/01/25 05:57:34;;;;;;;17.20;8.35;;;0.60;69.10;;;;;;2461376;52;20982;-68
2022/01/25 06:00:00;;;;;;;19.45;8.70;;;0.60;69.10;;;;;;2395503;53;21728;-69
2022/01/25 06:02:30;;;;;;;20.65;9.32;;;0.50;69.00;;;;;;2394854;53;21006;-68
2022/01/25 06:04:57;;;;;;;22.62;9.98;;;0.60;69.20;;;;;;2394035;53;20955;-68
2022/01/25 06:07:24;;;;;;;20.50;9.38;;;0.60;69.20;;;;;;2394030;53;20994;-67
2022/01/25 06:09:50;;;;;;;20.50;9.27;;;0.60;69.20;;;;;;2393411;53;21384;-68
2022/01/25 06:12:16;;;;;;;20.37;9.45;;;0.50;69.10;;;;;;2371169;53;21003;-66
2022/01/25 06:14:42;;;;;;;17.60;8.93;;;0.50;69.10;;;;;;2394321;53;20908;-68
2022/01/25 06:17:08;;;;;;;21.08;9.40;;;0.50;69.10;;;;;;2393639;53;20958;-66
2022/01/25 06:19:35;;;;;;;20.98;9.68;;;0.50;69.20;;;;;;2473816;52;20928;-67
2022/01/25 06:22:02;;;;;;;22.98;10.55;;;0.50;69.20;;;;;;2396435;53;20928;-66
2022/01/25 06:24:28;;;;;;;19.98;9.63;;;0.50;69.20;;;;;;2392913;53;20928;-67
2022/01/25 06:26:55;;;;;;;21.75;10.10;;;0.50;69.10;;;;;;2395340;53;20908;-67
2022/01/25 06:29:24;;;;;;;21.45;10.18;;;0.50;69.10;;;;;;2438130;52;20963;-67
2022/01/25 06:31:50;;;;;;;26.50;10.88;;;0.50;69.10;;;;;;2472482;53;20936;-68
2022/01/25 06:34:17;;;;;;;22.95;9.55;;;0.40;69.10;;;;;;2532472;52;20952;-68
2022/01/25 06:36:46;;;;;;;26.15;11.00;;;0.40;69.10;;;;;;2394802;53;21569;-68
2022/01/25 06:39:13;;;;;;;27.37;11.57;;;0.40;69.10;;;;;;2378737;53;20945;-67
2022/01/25 06:41:39;;;;;;;28.20;11.95;;;0.40;69.10;;;;;;2387652;53;21843;-66
2022/01/25 06:44:06;;;;;;;25.80;11.18;;;0.50;69.20;;;;;;2410356;52;21042;-66
2022/01/25 06:46:33;;;;;;;29.08;12.73;;;0.40;69.10;;;;;;2395357;53;20948;-69
2022/01/25 06:48:59;;;;;;;26.20;11.70;;;0.40;69.10;;;;;;2393608;53;20939;-66
2022/01/25 06:51:27;;;;;;;30.02;12.48;;;0.40;69.10;;;;;;2394778;53;20919;-67
2022/01/25 06:53:56;;;;;;;33.10;12.57;;;0.40;69.10;;;;;;2395367;53;20931;-66
2022/01/25 06:56:22;;;;;;;27.02;12.30;;;0.40;69.00;;;;;;2394817;53;20936;-68
2022/01/25 06:58:49;;;;;;;44.42;15.57;;;0.40;69.10;;;;;;2607933;52;20958;-66
2022/01/25 07:01:17;;;;;;;34.15;13.13;;;0.40;69.10;;;;;;2653369;52;20955;-68
2022/01/25 07:03:44;;;;;;;32.58;13.15;;;0.40;69.20;;;;;;2395119;53;21102;-68
2022/01/25 07:06:10;;;;;;;33.35;13.27;;;0.40;69.40;;;;;;2387921;53;21037;-66
2022/01/25 07:08:37;;;;;;;26.77;11.45;;;0.40;69.20;;;;;;2356160;53;21014;-67
2022/01/25 07:11:06;;;;;;;31.02;12.15;;;0.40;69.20;;;;;;2395227;53;21768;-68
2022/01/25 07:13:32;;;;;;;23.48;11.38;;;0.40;69.30;;;;;;2653181;52;20928;-69
2022/01/25 07:15:58;;;;;;;25.27;11.82;;;0.40;69.40;;;;;;2396564;53;20932;-67
2022/01/25 07:18:25;;;;;;;28.00;11.48;;;0.40;69.40;;;;;;2394733;53;21441;-67
2022/01/25 07:20:52;;;;;;;29.95;11.77;;;0.40;69.40;;;;;;2371308;53;21007;-66
2022/01/25 07:23:18;;;;;;;28.95;12.07;;;0.40;69.50;;;;;;2400133;52;21750;-68
2022/01/25 07:25:44;;;;;;;22.67;10.10;;;0.40;69.50;;;;;;2394598;53;20963;-66
2022/01/25 07:28:11;;;;;;;24.42;11.07;;;0.40;69.60;;;;;;2395044;53;20987;-68
2022/01/25 07:30:37;;;;;;;28.08;11.73;;;0.40;69.60;;;;;;2394443;53;20959;-67
2022/01/25 07:33:19;;;;;;;28.10;12.57;;;0.40;69.60;;;;;;2613404;52;20995;-66
2022/01/25 07:35:52;;;;;;;22.62;11.25;;;0.40;69.60;;;;;;2372144;53;21057;-68
2022/01/25 07:38:19;;;;;;;23.70;11.02;;;0.40;69.70;;;;;;2382793;53;20960;-66
2022/01/25 07:40:45;;;;;;;24.20;11.23;;;0.40;69.80;;;;;;2386925;53;20942;-66
2022/01/25 07:43:12;;;;;;;25.00;11.57;;;0.40;69.90;;;;;;2653034;52;21015;-66
2022/01/25 07:45:39;;;;;;;26.17;12.55;;;0.40;70.00;;;;;;2394931;53;20951;-66
2022/01/25 07:48:10;;;;;;;30.67;12.93;;;0.40;70.00;;;;;;2371855;53;20997;-67
2022/01/25 07:50:37;;;;;;;27.55;11.70;;;0.50;70.10;;;;;;2394816;53;21412;-66
2022/01/25 07:53:04;;;;;;;27.95;13.07;;;0.50;70.20;;;;;;2382853;53;20933;-66
2022/01/25 07:55:30;;;;;;;30.73;13.27;;;0.50;70.30;;;;;;2385327;53;20992;-68
2022/01/25 07:57:57;;;;;;;27.52;13.50;;;0.50;70.30;;;;;;2398513;53;20932;-69
2022/01/25 08:00:23;;;;;;;27.92;13.30;;;0.50;70.40;;;;;;2398805;53;21019;-69
2022/01/25 08:02:51;;;;;;;35.60;15.75;;;0.60;70.60;;;;;;2478400;52;21390;-66
2022/01/25 08:05:50;;;;;;;31.15;15.10;;;0.60;70.70;;;;;;2314584;55;21003;-68
2022/01/25 08:08:52;;;;;;;29.35;13.82;;;0.70;70.80;;;;;;2246623;56;21013;-70
2022/01/25 08:11:24;;;;;;;29.40;14.57;;;0.70;70.80;;;;;;2188799;57;21056;-67
2022/01/25 08:14:02;;;;;;;35.13;14.07;;;0.70;70.80;;;;;;2214059;58;21029;-65
2022/01/25 08:16:49;;;;;;;28.00;12.48;;;0.80;71.00;;;;;;2231881;57;20965;-66
2022/01/25 08:19:25;;;;;;;30.83;13.32;;;0.80;71.00;;;;;;2237821;56;21020;-66
2022/01/25 08:21:59;;;;;;;30.92;14.05;;;0.90;71.20;;;;;;2229898;56;21754;-68
2022/01/25 08:24:54;;;;;;;28.52;13.90;;;0.90;71.30;;;;;;2179120;56;21463;-69
2022/01/25 08:27:49;;;;;;;30.60;14.57;;;0.90;71.40;;;;;;2269458;56;20994;-69
2022/01/25 08:30:23;;;;;;;27.75;14.25;;;1.00;71.50;;;;;;2213309;56;21023;-66
2022/01/25 08:32:58;;;;;;;29.30;12.30;;;1.00;71.70;;;;;;2213885;57;20983;-67
2022/01/25 08:35:56;;;;;;;33.05;14.50;;;1.10;71.90;;;;;;2271459;54;20936;-68
2022/01/25 08:38:44;;;;;;;30.98;13.90;;;1.10;71.90;;;;;;2390051;54;20924;-68
2022/01/25 08:41:32;;;;;;;41.05;15.93;;;1.20;72.20;;;;;;2415011;54;21041;-68
2022/01/25 08:44:03;;;;;;;46.97;19.98;;;1.30;72.40;;;;;;2371276;54;20961;-67
2022/01/25 08:46:40;;;;;;;44.95;18.60;;;1.40;72.70;;;;;;2349165;54;21006;-66
2022/01/25 08:49:30;;;;;;;54.45;21.35;;;1.40;72.80;;;;;;2320931;55;20966;-67
2022/01/25 08:52:19;;;;;;;51.42;21.70;;;1.50;72.90;;;;;;2245313;55;21492;-69
2022/01/25 08:54:51;;;;;;;40.75;18.73;;;1.60;73.10;;;;;;2273896;56;20950;-69
2022/01/25 08:57:22;;;;;;;39.00;18.98;;;1.70;73.30;;;;;;2253115;56;20981;-68
2022/01/25 09:00:14;;;;;;;43.67;18.48;;;1.70;74.20;;;;;;2226754;55;20972;-69
2022/01/25 09:02:41;;;;;;;41.28;18.48;;;1.80;73.50;;;;;;2265798;56;20976;-68
2022/01/25 09:05:13;;;;;;;35.38;16.92;;;1.90;73.70;;;;;;2224321;56;21062;-69
2022/01/25 09:07:39;;;;;;;40.50;16.83;;;2.00;73.80;;;;;;2258562;56;21787;-69
2022/01/25 09:10:08;;;;;;;33.88;15.73;;;2.10;73.80;;;;;;2262134;55;21401;-66
2022/01/25 09:12:34;;;;;;;34.05;16.65;;;2.10;74.00;;;;;;2290083;55;20987;-67
2022/01/25 09:15:01;;;;;;;34.70;16.17;;;2.20;74.10;;;;;;2267796;55;20989;-67
2022/01/25 09:17:27;;;;;;;32.45;14.70;;;2.30;74.30;;;;;;2246544;55;21047;-67
2022/01/25 09:19:53;;;;;;;30.42;14.40;;;2.40;74.50;;;;;;2274253;55;21455;-68
2022/01/25 09:22:22;;;;;;;27.92;13.55;;;2.50;74.60;;;;;;2261954;55;21813;-67
2022/01/25 09:24:51;;;;;;;33.85;15.40;;;2.60;74.80;;;;;;2261367;56;21027;-68
2022/01/25 09:27:17;;;;;;;33.83;14.82;;;2.70;75.00;;;;;;2262970;56;20942;-66
2022/01/25 09:29:43;;;;;;;27.00;14.00;;;2.80;75.20;;;;;;2314234;53;20980;-67
2022/01/25 09:32:10;;;;;;;27.40;12.77;;;2.90;75.30;;;;;;2355491;53;21661;-69
2022/01/25 09:34:36;;;;;;;24.77;13.25;;;3.00;75.50;;;;;;2351378;53;21775;-66
2022/01/25 09:37:02;;;;;;;26.87;13.13;;;3.10;75.60;;;;;;2472449;53;20928;-65
2022/01/25 09:39:29;;;;;;;24.02;11.93;;;3.20;75.80;;;;;;2339334;54;21012;-69
2022/01/25 09:41:55;;;;;;;24.52;12.48;;;3.30;76.00;;;;;;2455783;52;2177552;-66
2022/01/25 09:44:23;;;;;;;25.90;13.00;;;3.40;76.20;;;;;;2364666;53;20963;-68
2022/01/25 09:46:53;;;;;;;26.52;13.15;;;3.50;76.30;;;;;;2354123;53;20990;-67
2022/01/25 09:49:20;;;;;;;27.87;13.65;;;3.70;76.60;;;;;;2350925;53;20966;-67
2022/01/25 09:51:50;;;;;;;28.90;14.50;;;3.80;76.70;;;;;;2430451;52;21435;-68
2022/01/25 09:54:16;;;;;;;27.37;13.60;;;3.90;76.90;;;;;;2612353;52;20963;-68
2022/01/25 09:56:45;;;;;;;30.50;15.48;;;4.00;77.70;;;;;;2361965;54;21308;-66
2022/01/25 09:59:11;;;;;;;29.73;15.90;;;4.30;79.50;;;;;;2376535;53;20992;-66
2022/01/25 10:01:40;;;;;;;32.65;16.37;;;4.60;81.30;;;;;;2385273;54;21484;-68
2022/01/25 10:04:29;;;;;;;33.38;15.70;;;5.00;82.30;;;;;;2385691;54;21022;-67
2022/01/25 10:06:59;;;;;;;29.92;15.57;;;5.40;81.50;;;;;;2385511;54;20923;-68
2022/01/25 10:09:28;;;;;;;29.23;15.07;;;5.60;80.40;;;;;;2385310;54;20954;-69
2022/01/25 10:11:55;;;;;;;32.30;16.60;;;5.70;79.60;;;;;;2385360;54;21067;-66
2022/01/25 10:14:25;;;;;;;31.45;16.23;;;5.90;80.30;;;;;;2385248;54;20935;-65
2022/01/25 10:16:53;;;;;;;30.65;17.27;;;6.20;81.90;;;;;;2641640;52;20919;-67
2022/01/25 10:19:23;;;;;;;31.48;16.50;;;6.50;83.50;;;;;;2372565;53;20938;-68
2022/01/25 10:21:51;;;;;;;32.55;18.00;;;6.90;84.60;;;;;;2627368;52;21576;-69
2022/01/25 10:24:24;;;;;;;35.08;19.35;;;7.40;85.40;;;;;;2373007;54;20986;-67
2022/01/25 10:27:03;;;;;;;35.17;19.83;;;7.80;85.70;;;;;;2356340;54;21033;-67
2022/01/25 10:29:31;;;;;;;35.47;19.37;;;8.40;85.20;;;;;;2383108;54;20999;-69
2022/01/25 10:32:00;;;;;;;35.45;20.30;;;8.80;85.10;;;;;;2385083;54;20907;-69
2022/01/25 10:34:32;;;;;;;33.78;20.37;;;9.10;84.00;;;;;;2514341;52;21401;-66
2022/01/25 10:37:00;;;;;;;;;;;9.50;83.00;;;;;;2406169;52;21059;-66
2022/01/25 10:39:31;;;;;;;28.85;17.27;;;9.80;79.80;;;;;;2385090;54;20120;-66
2022/01/25 10:42:24;;;;;;;32.72;19.20;;;10.00;79.90;;;;;;2641434;52;21503;-69
2022/01/25 10:45:02;;;;;;;32.78;19.77;;;10.20;78.40;;;;;;2385052;54;20936;-67
2022/01/25 10:47:50;;;;;;;28.10;17.27;;;10.40;77.10;;;;;;2385883;54;20928;-68
2022/01/25 10:50:28;;;;;;;29.67;18.08;;;10.50;75.90;;;;;;2344525;54;20956;-68
2022/01/25 10:53:10;;;;;;;30.12;17.62;;;10.60;76.80;;;;;;2387030;54;20920;-68
2022/01/25 10:55:39;;;;;;;30.20;18.83;;;10.80;75.50;;;;;;2385934;54;21877;-67
2022/01/25 10:58:05;;;;;;;29.63;17.70;;;10.90;76.40;;;;;;2378728;54;22055;-70
2022/01/25 11:00:33;;;;;;;27.87;17.40;;;11.10;76.20;;;;;;2362210;53;20997;-68
2022/01/25 11:03:02;;;;;;;30.12;19.02;;;11.30;75.90;;;;;;2602409;52;21432;-66
2022/01/25 11:05:34;;;;;;;32.65;19.67;;;11.40;75.50;;;;;;2367077;54;21486;-66
2022/01/25 11:09:05;;;;;;;33.85;19.12;;;11.60;75.40;;;;;;2385968;54;20978;-70
2022/01/25 11:11:45;;;;;;;30.62;19.20;;;11.80;72.40;;;;;;2363054;54;21009;-70
2022/01/25 11:16:59;;;;;;;27.77;17.08;;;12.10;74.90;;;;;;2362499;53;21705;-68
2022/01/25 11:19:25;;;;;;;27.83;17.83;;;12.30;74.50;;;;;;2361638;53;21408;-68
2022/01/25 11:21:52;;;;;;;30.42;19.40;;;12.40;73.90;;;;;;2426122;52;21962;-71
2022/01/25 11:24:19;;;;;;;29.33;18.65;;;12.50;73.20;;;;;;2570857;53;20981;-66
2022/01/25 11:26:45;;;;;;;26.50;17.23;;;12.60;72.70;;;;;;2362306;54;20961;-70
2022/01/25 11:29:12;;;;;;;30.08;17.98;;;12.60;72.20;;;;;;2426619;52;21017;-67
2022/01/25 11:31:39;;;;;;;30.73;19.40;;;12.70;71.90;;;;;;2450213;52;21006;-67
2022/01/25 11:34:09;;;;;;;29.75;17.87;;;12.70;72.00;;;;;;2361887;54;20934;-69
2022/01/25 11:36:52;;;;;;;26.50;16.58;;;12.80;71.50;;;;;;2361749;54;20950;-68
2022/01/25 11:39:23;;;;;;;28.20;17.73;;;12.80;69.30;;;;;;2359652;53;20985;-69
2022/01/25 11:41:49;;;;;;;30.50;17.25;;;12.80;69.60;;;;;;2356049;53;21676;-69
2022/01/25 11:44:26;;;;;;;25.42;15.45;;;12.70;69.40;;;;;;2362243;54;21066;-70
2022/01/25 11:47:16;;;;;;;27.37;17.37;;;12.70;68.30;;;;;;2366715;54;20940;-70
2022/01/25 11:56:31;;;;;;;26.58;16.77;;;12.60;67.10;;;;;;2366502;53;21073;-66
2022/01/25 11:58:58;;;;;;;18.30;11.15;;;12.20;66.70;;;;;;2371716;53;20949;-68
2022/01/25 12:01:25;;;;;;;23.73;14.05;;;12.10;68.20;;;;;;2381925;54;20946;-69
2022/01/25 12:03:55;;;;;;;26.27;15.27;;;12.00;68.40;;;;;;2601307;52;20991;-68
2022/01/25 12:06:27;;;;;;;27.85;16.95;;;12.00;68.90;;;;;;2389863;54;21021;-66
2022/01/25 12:12:07;;;;;;;25.33;15.60;;;11.80;67.60;;;;;;2442997;52;21456;-69
2022/01/25 12:14:56;;;;;;;25.37;15.57;;;11.80;69.30;;;;;;2389719;54;21003;-68
2022/01/25 12:17:26;;;;;;;26.23;16.87;;;11.90;68.20;;;;;;2390183;52;20968;-67
2022/01/25 12:20:00;;;;;;;28.52;15.90;;;11.80;69.30;;;;;;2389770;54;20927;-68
2022/01/25 12:22:40;;;;;;;29.25;17.00;;;11.80;69.20;;;;;;2393112;54;21015;-69
2022/01/25 12:25:23;;;;;;;26.05;17.02;;;11.90;69.20;;;;;;2389198;54;20975;-67
2022/01/25 12:27:53;;;;;;;24.45;15.18;;;11.90;68.70;;;;;;2390512;54;20911;-69
2022/01/25 12:30:31;;;;;;;25.90;15.57;;;11.90;69.20;;;;;;2390080;54;20971;-70
2022/01/25 12:33:03;;;;;;;26.30;16.17;;;11.90;68.60;;;;;;2361771;53;20956;-68
2022/01/25 12:35:37;;;;;;;26.85;16.48;;;11.90;68.90;;;;;;2389990;54;20987;-67
2022/01/25 12:38:20;;;;;;;27.08;17.12;;;11.90;68.80;;;;;;2389583;54;21858;-67
2022/01/25 12:41:49;;;;;;;28.30;16.90;;;12.00;68.80;;;;;;2456681;52;20997;-66
2022/01/25 12:44:20;;;;;;;21.70;13.62;;;12.00;68.00;;;;;;2370359;54;21734;-69
2022/01/25 12:46:46;;;;;;;25.85;15.82;;;12.00;69.10;;;;;;2368488;53;20932;-71
2022/01/25 12:49:14;;;;;;;23.67;15.15;;;12.00;69.50;;;;;;2389722;54;20984;-69
2022/01/25 12:51:42;;;;;;;26.75;16.62;;;12.00;70.10;;;;;;2389743;54;20991;-67
2022/01/25 12:54:12;;;;;;;23.17;14.90;;;12.10;70.50;;;;;;2390573;54;20971;-70
2022/01/25 12:56:46;;;;;;;25.75;15.75;;;12.20;70.50;;;;;;2393066;54;20976;-70
2022/01/25 12:59:16;;;;;;;23.38;15.15;;;12.30;71.10;;;;;;2645924;52;22036;-69
2022/01/25 13:01:44;;;;;;;27.92;16.80;;;12.40;70.40;;;;;;2646840;52;20942;-67
2022/01/25 13:04:12;;;;;;;27.25;16.52;;;12.50;70.30;;;;;;2370677;53;20969;-70
2022/01/25 13:06:51;;;;;;;22.90;14.20;;;12.60;70.30;;;;;;2384966;54;21044;-66
2022/01/25 13:09:27;;;;;;;24.48;15.70;;;12.70;70.00;;;;;;2390140;54;20991;-69
2022/01/25 13:15:27;;;;;;;25.08;16.12;;;12.90;69.20;;;;;;2390480;54;20939;-67
2022/01/25 13:17:56;;;;;;;24.73;15.52;;;13.00;69.20;;;;;;2361175;54;21383;-68
2022/01/25 13:20:22;;;;;;;25.48;16.35;;;13.00;69.10;;;;;;2447486;52;21545;-71
2022/01/25 13:22:48;;;;;;;23.38;15.25;;;13.10;69.10;;;;;;2640226;52;20904;-70
2022/01/25 13:25:32;;;;;;;23.25;15.70;;;13.10;68.90;;;;;;2389814;54;20927;-70
2022/01/25 13:28:02;;;;;;;23.98;15.52;;;13.10;68.80;;;;;;2389533;54;21010;-70
2022/01/25 13:30:41;;;;;;;24.83;15.75;;;13.20;68.70;;;;;;2389241;54;21885;-69
2022/01/25 13:33:17;;;;;;;23.33;15.30;;;13.20;68.30;;;;;;2389537;54;21405;-68
2022/01/25 13:35:48;;;;;;;25.83;16.02;;;13.30;67.90;;;;;;2578372;52;20969;-72
2022/01/25 13:38:39;;;;;;;25.25;16.75;;;13.30;68.60;;;;;;2377442;54;20936;-68
2022/01/25 13:41:20;;;;;;;22.70;14.70;;;13.30;66.50;;;;;;2389527;54;20892;-68
2022/01/25 13:47:05;;;;;;;20.45;13.82;;;13.30;67.20;;;;;;2390734;54;21002;-68
2022/01/25 13:49:32;;;;;;;23.23;15.07;;;13.30;67.60;;;;;;2389261;54;21453;-66
2022/01/25 13:51:58;;;;;;;24.87;15.65;;;13.30;67.40;;;;;;2365621;53;20949;-66
2022/01/25 13:54:26;;;;;;;22.67;13.73;;;13.20;67.10;;;;;;2385177;54;20999;-69
2022/01/25 13:56:52;;;;;;;25.00;14.85;;;13.20;67.10;;;;;;2389564;54;20924;-69
2022/01/25 13:59:21;;;;;;;22.80;14.45;;;13.10;67.10;;;;;;2389543;53;21456;-68
2022/01/25 14:01:47;;;;;;;25.92;15.65;;;13.10;67.30;;;;;;2383263;54;20997;-67
2022/01/25 14:04:18;;;;;;;22.27;14.95;;;13.00;67.50;;;;;;2366820;53;20982;-70
2022/01/25 14:06:49;;;;;;;23.67;15.15;;;13.00;67.50;;;;;;2389248;54;21007;-72
2022/01/25 14:10:05;;;;;;;23.77;15.38;;;12.90;67.80;;;;;;2427668;52;20979;-70
2022/01/25 14:23:44;;;;;;;20.92;13.10;;;12.50;67.50;;;;;;2389223;54;21039;-70
2022/01/25 14:26:13;;;;;;;23.10;14.38;;;12.40;67.60;;;;;;2366787;53;21004;-68
2022/01/25 14:28:42;;;;;;;25.37;15.85;;;12.30;67.40;;;;;;2591999;52;21916;-67
2022/01/25 14:31:22;;;;;;;25.62;14.98;;;12.20;67.70;;;;;;2542670;52;20920;-66
2022/01/25 14:33:55;;;;;;;21.02;13.45;;;12.10;67.40;;;;;;2391320;52;21518;-67
2022/01/25 14:36:25;;;;;;;22.58;13.88;;;12.00;67.40;;;;;;2388508;53;20959;-68
2022/01/25 14:38:54;;;;;;;24.73;14.60;;;12.00;67.70;;;;;;2395549;53;20987;-68
2022/01/25 14:41:23;;;;;;;24.92;14.95;;;11.90;67.80;;;;;;2382875;53;21460;-69
2022/01/25 14:43:58;;;;;;;24.67;14.43;;;11.80;67.80;;;;;;2394032;53;20904;-67
2022/01/25 14:46:41;;;;;;;22.37;14.10;;;11.70;67.60;;;;;;2366539;53;20961;-67
2022/01/25 14:49:14;;;;;;;23.55;14.52;;;11.60;67.80;;;;;;2394170;53;20969;-69
2022/01/25 14:51:45;;;;;;;22.40;14.02;;;11.50;68.50;;;;;;2394873;53;20899;-68
2022/01/25 14:54:14;;;;;;;23.42;14.20;;;11.40;67.70;;;;;;2393315;53;20979;-69